Time;durP1;ratioP1;P1;durP2;ratioP2;P2;SDS_P1;SDS_P2;PMS_P1;PMS_P2;Temp;Humidity;BMP_temperature;BMP_pressure;BME280_temperature;BME280_humidity;BME280_pressure;Samples;Min_cycle;Max_cycle;Signal;HPM_P1;HPM_P2
2022/10/08 00:00:25;;;;;;;0.00;0.00;;;;;;;;;;1739761;28;20582;-71
2022/10/08 00:01:17;;;;;;;0.00;0.00;;;;;;;;;;1738076;28;20294;-71
2022/10/08 00:02:09;;;;;;;0.00;0.00;;;;;;;;;;1738965;28;20199;-70
2022/10/08 00:03:00;;;;;;;0.00;0.00;;;;;;;;;;1739412;28;20236;-70
2022/10/08 00:03:52;;;;;;;0.00;0.00;;;;;;;;;;1739774;28;20265;-70
2022/10/08 00:04:45;;;;;;;0.00;0.00;;;;;;;;;;1739437;28;20269;-71
2022/10/08 00:05:36;;;;;;;0.00;0.00;;;;;;;;;;1740911;28;20408;-71
2022/10/08 00:06:29;;;;;;;0.00;0.00;;;;;;;;;;1739595;28;20226;-70
2022/10/08 00:07:20;;;;;;;0.00;0.00;;;;;;;;;;1740509;28;20199;-70
2022/10/08 00:08:12;;;;;;;0.00;0.00;;;;;;;;;;1739733;28;20231;-71
2022/10/08 00:09:05;;;;;;;0.00;0.00;;;;;;;;;;1740090;28;20302;-70
2022/10/08 00:09:57;;;;;;;0.00;0.00;;;;;;;;;;1742036;28;20230;-71
2022/10/08 00:10:51;;;;;;;0.00;0.00;;;;;;;;;;1745009;28;20294;-70
2022/10/08 00:11:43;;;;;;;0.00;0.00;;;;;;;;;;1744687;28;20198;-71
2022/10/08 00:12:34;;;;;;;0.00;0.00;;;;;;;;;;1739541;28;20210;-71
2022/10/08 00:13:39;;;;;;;0.00;0.00;;;;;;;;;;1740489;28;20199;-70
2022/10/08 00:14:31;;;;;;;0.00;0.00;;;;;;;;;;1739719;28;20206;-70
2022/10/08 00:15:22;;;;;;;0.00;0.00;;;;;;;;;;1740292;28;20226;-70
2022/10/08 00:16:15;;;;;;;0.00;0.00;;;;;;;;;;1739581;28;20207;-72
2022/10/08 00:17:06;;;;;;;0.00;0.00;;;;;;;;;;1740020;28;20545;-72
2022/10/08 00:17:58;;;;;;;0.00;0.00;;;;;;;;;;1739967;28;20294;-72
2022/10/08 00:18:50;;;;;;;0.00;0.00;;;;;;;;;;1740104;28;20338;-72
2022/10/08 00:19:42;;;;;;;0.00;0.00;;;;;;;;;;1739902;28;20616;-72
2022/10/08 00:20:34;;;;;;;0.00;0.00;;;;;;;;;;1740241;28;20222;-72
2022/10/08 00:21:28;;;;;;;0.00;0.00;;;;;;;;;;1739908;28;20199;-70
2022/10/08 00:22:19;;;;;;;0.00;0.00;;;;;;;;;;1739771;28;20325;-70
2022/10/08 00:23:11;;;;;;;0.00;0.00;;;;;;;;;;1740018;28;20599;-70
2022/10/08 00:24:04;;;;;;;0.00;0.00;;;;;;;;;;1739891;28;20260;-70
2022/10/08 00:24:56;;;;;;;0.00;0.00;;;;;;;;;;1739869;28;20213;-70
2022/10/08 00:25:47;;;;;;;0.00;0.00;;;;;;;;;;1740182;28;20565;-70
2022/10/08 00:26:40;;;;;;;0.00;0.00;;;;;;;;;;1739974;28;20206;-70
2022/10/08 00:27:32;;;;;;;0.00;0.00;;;;;;;;;;1740121;28;20229;-70
2022/10/08 00:28:24;;;;;;;0.00;0.00;;;;;;;;;;1739733;28;20199;-70
2022/10/08 00:29:17;;;;;;;0.00;0.00;;;;;;;;;;1739809;28;20237;-70
2022/10/08 00:30:10;;;;;;;0.00;0.00;;;;;;;;;;1736077;28;20409;-70
2022/10/08 00:31:05;;;;;;;0.00;0.00;;;;;;;;;;1740506;28;20234;-71
2022/10/08 00:31:56;;;;;;;0.00;0.00;;;;;;;;;;1742363;28;20210;-71
2022/10/08 00:32:48;;;;;;;0.00;0.00;;;;;;;;;;1741593;28;20191;-70
2022/10/08 00:33:39;;;;;;;0.00;0.00;;;;;;;;;;1746914;28;20214;-71
2022/10/08 00:34:31;;;;;;;0.00;0.00;;;;;;;;;;1746491;28;20260;-70
2022/10/08 00:35:22;;;;;;;0.00;0.00;;;;;;;;;;1747420;28;20186;-70
2022/10/08 00:36:13;;;;;;;0.00;0.00;;;;;;;;;;1746403;28;20264;-71
2022/10/08 00:37:05;;;;;;;0.00;0.00;;;;;;;;;;1746922;28;20321;-70
2022/10/08 00:37:57;;;;;;;0.00;0.00;;;;;;;;;;1746585;28;20321;-70
2022/10/08 00:38:49;;;;;;;0.00;0.00;;;;;;;;;;1746888;28;20600;-70
2022/10/08 00:39:40;;;;;;;0.00;0.00;;;;;;;;;;1738022;28;20247;-71
2022/10/08 00:40:32;;;;;;;0.00;0.00;;;;;;;;;;1734897;28;20200;-71
2022/10/08 00:41:25;;;;;;;0.00;0.00;;;;;;;;;;1741103;28;20296;-70
2022/10/08 00:42:17;;;;;;;0.00;0.00;;;;;;;;;;1733221;28;20213;-71
2022/10/08 00:43:10;;;;;;;0.00;0.00;;;;;;;;;;1746298;28;20244;-70
2022/10/08 00:44:03;;;;;;;0.00;0.00;;;;;;;;;;1746948;28;20205;-71
2022/10/08 00:44:56;;;;;;;0.00;0.00;;;;;;;;;;1740258;28;20203;-71
2022/10/08 00:45:49;;;;;;;0.00;0.00;;;;;;;;;;1735932;28;20196;-70
2022/10/08 00:46:43;;;;;;;0.00;0.00;;;;;;;;;;1740068;28;20257;-71
2022/10/08 00:47:39;;;;;;;0.00;0.00;;;;;;;;;;1739799;28;20767;-71
2022/10/08 00:48:31;;;;;;;0.00;0.00;;;;;;;;;;1740340;28;20191;-72
2022/10/08 00:49:24;;;;;;;0.00;0.00;;;;;;;;;;1739975;28;20502;-72
2022/10/08 00:50:19;;;;;;;0.00;0.00;;;;;;;;;;1740559;28;20220;-71
2022/10/08 00:51:11;;;;;;;0.00;0.00;;;;;;;;;;1739935;28;20231;-70
2022/10/08 00:52:02;;;;;;;0.00;0.00;;;;;;;;;;1739447;28;20268;-70
2022/10/08 00:52:56;;;;;;;0.00;0.00;;;;;;;;;;1739814;28;20270;-70
2022/10/08 00:53:47;;;;;;;0.00;0.00;;;;;;;;;;1739970;28;20569;-70
2022/10/08 00:54:38;;;;;;;0.00;0.00;;;;;;;;;;1740147;28;20199;-70
2022/10/08 00:55:31;;;;;;;0.00;0.00;;;;;;;;;;1740605;28;20199;-70
2022/10/08 00:56:23;;;;;;;0.00;0.00;;;;;;;;;;1739594;28;20237;-70
2022/10/08 00:57:15;;;;;;;0.00;0.00;;;;;;;;;;1739977;28;20298;-70
2022/10/08 00:58:09;;;;;;;0.00;0.00;;;;;;;;;;1743865;28;20252;-71
2022/10/08 00:59:01;;;;;;;0.00;0.00;;;;;;;;;;1742169;28;20298;-70
2022/10/08 00:59:52;;;;;;;0.00;0.00;;;;;;;;;;1741322;28;20202;-70
2022/10/08 01:00:46;;;;;;;0.00;0.00;;;;;;;;;;1747325;28;20202;-70
2022/10/08 01:01:40;;;;;;;0.00;0.00;;;;;;;;;;1746894;28;20297;-72
2022/10/08 01:02:32;;;;;;;0.00;0.00;;;;;;;;;;1746324;28;20198;-71
2022/10/08 01:03:23;;;;;;;0.00;0.00;;;;;;;;;;1747097;28;20221;-71
2022/10/08 01:04:15;;;;;;;0.00;0.00;;;;;;;;;;1746740;28;20285;-71
2022/10/08 01:05:07;;;;;;;0.00;0.00;;;;;;;;;;1747325;28;20214;-71
2022/10/08 01:06:03;;;;;;;0.00;0.00;;;;;;;;;;1746918;28;20229;-70
2022/10/08 01:06:57;;;;;;;0.00;0.00;;;;;;;;;;1747027;28;20609;-70
2022/10/08 01:07:52;;;;;;;0.00;0.00;;;;;;;;;;1746657;28;20245;-71
2022/10/08 01:08:47;;;;;;;0.00;0.00;;;;;;;;;;1746763;28;20229;-71
2022/10/08 01:09:42;;;;;;;0.00;0.00;;;;;;;;;;1746873;28;20209;-70
2022/10/08 01:10:37;;;;;;;0.00;0.00;;;;;;;;;;1747312;28;20631;-70
2022/10/08 01:11:34;;;;;;;0.00;0.00;;;;;;;;;;1746792;28;20240;-71
2022/10/08 01:12:32;;;;;;;0.00;0.00;;;;;;;;;;1746373;28;20232;-71
2022/10/08 01:13:29;;;;;;;0.00;0.00;;;;;;;;;;1747047;28;20504;-71
2022/10/08 01:14:24;;;;;;;0.00;0.00;;;;;;;;;;1746710;28;20232;-71
2022/10/08 01:15:22;;;;;;;0.00;0.00;;;;;;;;;;1747343;28;20622;-71
2022/10/08 01:16:21;;;;;;;0.00;0.00;;;;;;;;;;1746802;28;20309;-70
2022/10/08 01:17:16;;;;;;;0.00;0.00;;;;;;;;;;1746851;28;20218;-70
2022/10/08 01:18:10;;;;;;;0.00;0.00;;;;;;;;;;1746488;28;20593;-70
2022/10/08 01:19:07;;;;;;;0.00;0.00;;;;;;;;;;1746755;28;20332;-70
2022/10/08 01:20:11;;;;;;;0.00;0.00;;;;;;;;;;1746871;28;20784;-70
2022/10/08 01:21:04;;;;;;;0.00;0.00;;;;;;;;;;1746542;28;20209;-70
2022/10/08 01:22:02;;;;;;;0.00;0.00;;;;;;;;;;1746601;28;20241;-70
2022/10/08 01:23:03;;;;;;;0.00;0.00;;;;;;;;;;1742407;28;20226;-71
2022/10/08 01:24:07;;;;;;;0.00;0.00;;;;;;;;;;1740103;28;20314;-70
2022/10/08 01:26:18;;;;;;;0.00;0.00;;;;;;;;;;1739832;28;20193;-71
2022/10/08 01:27:16;;;;;;;0.00;0.00;;;;;;;;;;1739744;28;20249;-71
2022/10/08 01:28:11;;;;;;;0.00;0.00;;;;;;;;;;1739592;28;20233;-71
2022/10/08 01:29:05;;;;;;;0.00;0.00;;;;;;;;;;1739511;28;20645;-71
2022/10/08 01:29:59;;;;;;;0.00;0.00;;;;;;;;;;1739670;28;20199;-71
2022/10/08 01:30:53;;;;;;;0.00;0.00;;;;;;;;;;1740111;28;20244;-71
2022/10/08 01:31:47;;;;;;;0.00;0.00;;;;;;;;;;1739700;28;20604;-71
2022/10/08 01:32:41;;;;;;;0.00;0.00;;;;;;;;;;1740398;28;20651;-71
2022/10/08 01:33:35;;;;;;;0.00;0.00;;;;;;;;;;1746410;28;20290;-71
2022/10/08 01:34:31;;;;;;;0.00;0.00;;;;;;;;;;1746540;28;20205;-71
2022/10/08 01:35:24;;;;;;;0.00;0.00;;;;;;;;;;1747059;28;20281;-71
2022/10/08 01:36:17;;;;;;;0.00;0.00;;;;;;;;;;1746709;28;20272;-70
2022/10/08 01:37:12;;;;;;;0.00;0.00;;;;;;;;;;1746819;28;20233;-70
2022/10/08 01:38:06;;;;;;;0.00;0.00;;;;;;;;;;1746510;28;20261;-70
2022/10/08 01:38:58;;;;;;;0.00;0.00;;;;;;;;;;1746631;28;20203;-70
2022/10/08 01:39:52;;;;;;;0.00;0.00;;;;;;;;;;1739503;28;20226;-70
2022/10/08 01:40:44;;;;;;;0.00;0.00;;;;;;;;;;1740240;28;20246;-70
2022/10/08 01:41:37;;;;;;;0.00;0.00;;;;;;;;;;1739719;28;20545;-70
2022/10/08 01:42:31;;;;;;;0.00;0.00;;;;;;;;;;1739547;28;20227;-70
2022/10/08 01:43:25;;;;;;;0.00;0.00;;;;;;;;;;1739576;28;20264;-70
2022/10/08 01:44:18;;;;;;;0.00;0.00;;;;;;;;;;1739487;28;20222;-70
2022/10/08 01:45:13;;;;;;;0.00;0.00;;;;;;;;;;1740120;28;20311;-70
2022/10/08 01:46:07;;;;;;;0.00;0.00;;;;;;;;;;1739546;28;20245;-71
2022/10/08 01:47:01;;;;;;;0.00;0.00;;;;;;;;;;1739859;28;20273;-71
2022/10/08 01:47:54;;;;;;;0.00;0.00;;;;;;;;;;1739364;28;20265;-71
2022/10/08 01:48:47;;;;;;;0.00;0.00;;;;;;;;;;1739875;28;20696;-71
2022/10/08 01:49:42;;;;;;;0.00;0.00;;;;;;;;;;1739210;28;20490;-71
2022/10/08 01:50:36;;;;;;;0.00;0.00;;;;;;;;;;1739715;28;20459;-71
2022/10/08 01:51:31;;;;;;;0.00;0.00;;;;;;;;;;1739655;28;20216;-71
2022/10/08 01:52:24;;;;;;;0.00;0.00;;;;;;;;;;1739213;28;20526;-72
2022/10/08 01:53:17;;;;;;;0.00;0.00;;;;;;;;;;1739971;28;20600;-71
2022/10/08 01:54:09;;;;;;;0.00;0.00;;;;;;;;;;1739692;28;20249;-71
2022/10/08 01:55:04;;;;;;;0.00;0.00;;;;;;;;;;1739685;28;20213;-71
2022/10/08 01:55:56;;;;;;;0.00;0.00;;;;;;;;;;1739639;28;20934;-70
2022/10/08 01:56:49;;;;;;;0.00;0.00;;;;;;;;;;1739848;28;20575;-70
2022/10/08 01:57:43;;;;;;;0.00;0.00;;;;;;;;;;1740320;28;20298;-70
2022/10/08 01:58:37;;;;;;;0.00;0.00;;;;;;;;;;1745415;28;20286;-70
2022/10/08 01:59:31;;;;;;;0.00;0.00;;;;;;;;;;1739454;28;20701;-70
2022/10/08 02:00:23;;;;;;;0.00;0.00;;;;;;;;;;1745772;28;20191;-70
2022/10/08 02:01:15;;;;;;;0.00;0.00;;;;;;;;;;1746432;28;20206;-72
2022/10/08 02:02:11;;;;;;;0.00;0.00;;;;;;;;;;1746352;28;20198;-72
2022/10/08 02:03:02;;;;;;;0.00;0.00;;;;;;;;;;1746464;28;20222;-72
2022/10/08 02:05:05;;;;;;;0.00;0.00;;;;;;;;;;1746756;28;20251;-71
2022/10/08 02:05:58;;;;;;;0.00;0.00;;;;;;;;;;1746516;28;20264;-72
2022/10/08 02:06:53;;;;;;;0.00;0.00;;;;;;;;;;1746646;28;20647;-71
2022/10/08 02:07:45;;;;;;;0.00;0.00;;;;;;;;;;1746595;28;20233;-71
2022/10/08 02:08:36;;;;;;;0.00;0.00;;;;;;;;;;1746529;28;20274;-71
2022/10/08 02:09:28;;;;;;;0.00;0.00;;;;;;;;;;1746468;28;20198;-72
2022/10/08 02:10:22;;;;;;;0.00;0.00;;;;;;;;;;1746908;28;20213;-72
2022/10/08 02:11:13;;;;;;;0.00;0.00;;;;;;;;;;1746421;28;20233;-71
2022/10/08 02:12:05;;;;;;;0.00;0.00;;;;;;;;;;1746473;28;20213;-71
2022/10/08 02:12:58;;;;;;;0.00;0.00;;;;;;;;;;1746238;28;20210;-71
2022/10/08 02:13:50;;;;;;;0.00;0.00;;;;;;;;;;1746607;28;20206;-72
2022/10/08 02:14:43;;;;;;;0.00;0.00;;;;;;;;;;1746078;28;20293;-72
2022/10/08 02:15:39;;;;;;;0.00;0.00;;;;;;;;;;1746722;28;20203;-71
2022/10/08 02:16:32;;;;;;;0.00;0.00;;;;;;;;;;1746406;28;20207;-70
2022/10/08 02:17:27;;;;;;;0.00;0.00;;;;;;;;;;1746468;28;20213;-70
2022/10/08 02:18:20;;;;;;;0.00;0.00;;;;;;;;;;1746602;28;20218;-70
2022/10/08 02:19:16;;;;;;;0.00;0.00;;;;;;;;;;1746499;28;20863;-70
2022/10/08 02:20:11;;;;;;;0.00;0.00;;;;;;;;;;1746990;28;20248;-70
2022/10/08 02:21:05;;;;;;;0.00;0.00;;;;;;;;;;1746338;28;20208;-70
2022/10/08 02:21:58;;;;;;;0.00;0.00;;;;;;;;;;1746421;28;20213;-70
2022/10/08 02:22:53;;;;;;;0.00;0.00;;;;;;;;;;1746553;28;20574;-70
2022/10/08 02:23:46;;;;;;;0.00;0.00;;;;;;;;;;1746483;28;20490;-71
2022/10/08 02:24:40;;;;;;;0.00;0.00;;;;;;;;;;1746112;28;20280;-70
2022/10/08 02:25:34;;;;;;;0.00;0.00;;;;;;;;;;1747101;28;20284;-71
2022/10/08 02:26:26;;;;;;;0.00;0.00;;;;;;;;;;1746238;28;20217;-72
2022/10/08 02:27:22;;;;;;;0.00;0.00;;;;;;;;;;1746534;28;20602;-72
2022/10/08 02:28:18;;;;;;;0.00;0.00;;;;;;;;;;1746496;28;20273;-72
2022/10/08 02:29:13;;;;;;;0.00;0.00;;;;;;;;;;1744816;28;20210;-72
2022/10/08 02:30:06;;;;;;;0.00;0.00;;;;;;;;;;1740056;28;20234;-72
2022/10/08 02:31:02;;;;;;;0.00;0.00;;;;;;;;;;1741647;28;20209;-70
2022/10/08 02:31:55;;;;;;;0.00;0.00;;;;;;;;;;1742543;28;20702;-71
2022/10/08 02:32:49;;;;;;;0.00;0.00;;;;;;;;;;1739451;28;20207;-70
2022/10/08 02:33:43;;;;;;;0.00;0.00;;;;;;;;;;1739453;28;20727;-71
2022/10/08 02:34:36;;;;;;;0.00;0.00;;;;;;;;;;1739452;28;20199;-70
2022/10/08 02:35:32;;;;;;;0.00;0.00;;;;;;;;;;1739973;28;20206;-70
2022/10/08 02:36:26;;;;;;;0.00;0.00;;;;;;;;;;1739166;28;20278;-72
2022/10/08 02:37:20;;;;;;;0.00;0.00;;;;;;;;;;1739577;28;20210;-71
2022/10/08 02:38:13;;;;;;;0.00;0.00;;;;;;;;;;1739397;28;20269;-72
2022/10/08 02:39:06;;;;;;;0.00;0.00;;;;;;;;;;1739454;28;20309;-71
2022/10/08 02:39:59;;;;;;;0.00;0.00;;;;;;;;;;1739402;28;20226;-71
2022/10/08 02:40:55;;;;;;;0.00;0.00;;;;;;;;;;1739709;28;20345;-72
2022/10/08 02:41:48;;;;;;;0.00;0.00;;;;;;;;;;1739144;28;20238;-70
2022/10/08 02:42:43;;;;;;;0.00;0.00;;;;;;;;;;1739405;28;20203;-70
2022/10/08 02:43:39;;;;;;;0.00;0.00;;;;;;;;;;1739457;28;20692;-70
2022/10/08 02:44:34;;;;;;;0.00;0.00;;;;;;;;;;1739425;28;20199;-70
2022/10/08 02:45:27;;;;;;;0.00;0.00;;;;;;;;;;1739812;28;20248;-70
2022/10/08 02:46:20;;;;;;;0.00;0.00;;;;;;;;;;1739299;28;20199;-71
2022/10/08 02:47:14;;;;;;;0.00;0.00;;;;;;;;;;1739584;28;20599;-71
2022/10/08 02:48:09;;;;;;;0.00;0.00;;;;;;;;;;1739278;28;20210;-72
2022/10/08 02:49:02;;;;;;;0.00;0.00;;;;;;;;;;1739741;28;20517;-72
2022/10/08 02:49:56;;;;;;;0.00;0.00;;;;;;;;;;1739232;28;20599;-72
2022/10/08 02:50:50;;;;;;;0.00;0.00;;;;;;;;;;1739718;28;20215;-71
2022/10/08 02:51:42;;;;;;;0.00;0.00;;;;;;;;;;1739417;28;20629;-72
2022/10/08 02:52:37;;;;;;;0.00;0.00;;;;;;;;;;1738609;28;20198;-72
2022/10/08 02:53:29;;;;;;;0.00;0.00;;;;;;;;;;1739690;28;20580;-71
2022/10/08 02:54:22;;;;;;;0.00;0.00;;;;;;;;;;1739183;28;20280;-71
2022/10/08 02:55:18;;;;;;;0.00;0.00;;;;;;;;;;1739951;28;20656;-71
2022/10/08 02:56:13;;;;;;;0.00;0.00;;;;;;;;;;1739340;28;20396;-71
2022/10/08 02:57:08;;;;;;;0.00;0.00;;;;;;;;;;1739564;28;20230;-71
2022/10/08 02:58:02;;;;;;;0.00;0.00;;;;;;;;;;1739912;28;20238;-71
2022/10/08 02:58:54;;;;;;;0.00;0.00;;;;;;;;;;1739662;28;20301;-71
2022/10/08 02:59:47;;;;;;;0.00;0.00;;;;;;;;;;1745258;28;20229;-71
2022/10/08 03:00:40;;;;;;;0.00;0.00;;;;;;;;;;1746833;28;20198;-72
2022/10/08 03:01:37;;;;;;;0.00;0.00;;;;;;;;;;1746332;28;20293;-71
2022/10/08 03:02:32;;;;;;;0.00;0.00;;;;;;;;;;1745820;28;20490;-70
2022/10/08 03:03:29;;;;;;;0.00;0.00;;;;;;;;;;1747771;28;20213;-70
2022/10/08 03:04:23;;;;;;;0.00;0.00;;;;;;;;;;1747340;28;20315;-70
2022/10/08 03:05:17;;;;;;;0.00;0.00;;;;;;;;;;1748285;28;20203;-70
2022/10/08 03:06:10;;;;;;;0.00;0.00;;;;;;;;;;1747651;28;20359;-70
2022/10/08 03:07:02;;;;;;;0.00;0.00;;;;;;;;;;1747717;28;20635;-70
2022/10/08 03:07:54;;;;;;;0.00;0.00;;;;;;;;;;1747330;28;20233;-70
2022/10/08 03:08:47;;;;;;;0.00;0.00;;;;;;;;;;1747510;28;20205;-70
2022/10/08 03:09:40;;;;;;;0.00;0.00;;;;;;;;;;1747440;28;20210;-70
2022/10/08 03:10:34;;;;;;;0.00;0.00;;;;;;;;;;1748020;28;20245;-70
2022/10/08 03:11:26;;;;;;;0.00;0.00;;;;;;;;;;1747417;28;20202;-70
2022/10/08 03:12:18;;;;;;;0.00;0.00;;;;;;;;;;1747499;28;20198;-70
2022/10/08 03:13:10;;;;;;;0.00;0.00;;;;;;;;;;1746904;28;20226;-70
2022/10/08 03:14:05;;;;;;;0.00;0.00;;;;;;;;;;1747665;28;20529;-70
2022/10/08 03:14:56;;;;;;;0.00;0.00;;;;;;;;;;1739286;28;20322;-70
2022/10/08 03:15:51;;;;;;;0.00;0.00;;;;;;;;;;1740896;28;20210;-70
2022/10/08 03:16:43;;;;;;;0.00;0.00;;;;;;;;;;1740726;28;20239;-70
2022/10/08 03:17:36;;;;;;;0.00;0.00;;;;;;;;;;1740751;28;20195;-70
2022/10/08 03:18:27;;;;;;;0.00;0.00;;;;;;;;;;1740613;28;20309;-70
2022/10/08 03:19:20;;;;;;;0.00;0.00;;;;;;;;;;1740438;28;20198;-70
2022/10/08 03:20:11;;;;;;;0.00;0.00;;;;;;;;;;1741246;28;20293;-70
2022/10/08 03:21:03;;;;;;;0.00;0.00;;;;;;;;;;1740543;28;20203;-71
2022/10/08 03:21:55;;;;;;;0.00;0.00;;;;;;;;;;1740606;28;20206;-70
2022/10/08 03:22:47;;;;;;;0.00;0.00;;;;;;;;;;1740677;28;20209;-71
2022/10/08 03:23:38;;;;;;;0.00;0.00;;;;;;;;;;1740335;28;20218;-70
2022/10/08 03:24:30;;;;;;;0.00;0.00;;;;;;;;;;1740719;28;20210;-71
2022/10/08 03:25:21;;;;;;;0.00;0.00;;;;;;;;;;1740782;28;20664;-71
2022/10/08 03:26:16;;;;;;;0.00;0.00;;;;;;;;;;1740651;28;20206;-70
2022/10/08 03:27:07;;;;;;;0.00;0.00;;;;;;;;;;1740606;28;20958;-70
2022/10/08 03:28:00;;;;;;;0.00;0.00;;;;;;;;;;1740600;28;20290;-71
2022/10/08 03:28:51;;;;;;;0.00;0.00;;;;;;;;;;1740281;28;20194;-71
2022/10/08 03:29:45;;;;;;;0.00;0.00;;;;;;;;;;1740352;28;20222;-71
2022/10/08 03:30:36;;;;;;;0.00;0.00;;;;;;;;;;1741078;28;20207;-70
2022/10/08 03:31:28;;;;;;;0.00;0.00;;;;;;;;;;1740194;28;20198;-70
2022/10/08 03:32:19;;;;;;;0.00;0.00;;;;;;;;;;1740563;28;20301;-71
2022/10/08 03:33:11;;;;;;;0.00;0.00;;;;;;;;;;1747107;28;20601;-70
2022/10/08 03:34:02;;;;;;;0.00;0.00;;;;;;;;;;1747358;28;20301;-70
2022/10/08 03:34:54;;;;;;;0.00;0.00;;;;;;;;;;1747484;28;20213;-71
2022/10/08 03:35:45;;;;;;;0.00;0.00;;;;;;;;;;1747690;28;20206;-71
2022/10/08 03:36:37;;;;;;;0.00;0.00;;;;;;;;;;1747651;28;20646;-72
2022/10/08 03:37:28;;;;;;;0.00;0.00;;;;;;;;;;1747276;28;20237;-72
2022/10/08 03:38:19;;;;;;;0.00;0.00;;;;;;;;;;1747437;28;20237;-72
2022/10/08 03:39:12;;;;;;;0.00;0.00;;;;;;;;;;1747299;28;20206;-72
2022/10/08 03:40:06;;;;;;;0.00;0.00;;;;;;;;;;1747665;28;20206;-72
2022/10/08 03:40:59;;;;;;;0.00;0.00;;;;;;;;;;1747397;28;20210;-72
2022/10/08 03:41:50;;;;;;;0.00;0.00;;;;;;;;;;1747124;28;20234;-72
2022/10/08 03:42:42;;;;;;;0.00;0.00;;;;;;;;;;1747414;28;20210;-72
2022/10/08 03:43:33;;;;;;;0.00;0.00;;;;;;;;;;1747353;28;20309;-72
2022/10/08 03:44:25;;;;;;;0.00;0.00;;;;;;;;;;1747089;28;20202;-72
2022/10/08 03:45:18;;;;;;;0.00;0.00;;;;;;;;;;1747853;28;20256;-72
2022/10/08 03:46:10;;;;;;;0.00;0.00;;;;;;;;;;1745060;28;20643;-71
2022/10/08 03:47:01;;;;;;;0.00;0.00;;;;;;;;;;1740623;28;20489;-71
2022/10/08 03:47:54;;;;;;;0.00;0.00;;;;;;;;;;1740228;28;20199;-71
2022/10/08 03:48:47;;;;;;;0.00;0.00;;;;;;;;;;1740630;28;20226;-71
2022/10/08 03:49:40;;;;;;;0.00;0.00;;;;;;;;;;1739996;28;20268;-71
2022/10/08 03:50:31;;;;;;;0.00;0.00;;;;;;;;;;1740847;28;20195;-71
2022/10/08 03:51:23;;;;;;;0.00;0.00;;;;;;;;;;1740195;28;20625;-71
2022/10/08 03:52:14;;;;;;;0.00;0.00;;;;;;;;;;1740060;28;20241;-71
2022/10/08 03:53:06;;;;;;;0.00;0.00;;;;;;;;;;1739759;28;20235;-71
2022/10/08 03:53:57;;;;;;;0.00;0.00;;;;;;;;;;1740424;28;20616;-71
2022/10/08 03:54:49;;;;;;;0.00;0.00;;;;;;;;;;1740089;28;20199;-72
2022/10/08 03:55:40;;;;;;;0.00;0.00;;;;;;;;;;1740953;28;20718;-71
2022/10/08 03:56:33;;;;;;;0.00;0.00;;;;;;;;;;1739970;28;20199;-71
2022/10/08 03:57:24;;;;;;;0.00;0.00;;;;;;;;;;1740987;28;20298;-71
2022/10/08 03:58:16;;;;;;;0.00;0.00;;;;;;;;;;1740436;28;20226;-71
2022/10/08 03:59:07;;;;;;;0.00;0.00;;;;;;;;;;1741188;28;20317;-71
2022/10/08 03:59:59;;;;;;;0.00;0.00;;;;;;;;;;1747445;28;20613;-71
2022/10/08 04:00:58;;;;;;;0.00;0.00;;;;;;;;;;1747477;28;20635;-71
2022/10/08 04:01:50;;;;;;;0.00;0.00;;;;;;;;;;1737399;28;20211;-71
2022/10/08 04:02:41;;;;;;;0.00;0.00;;;;;;;;;;1740077;28;20253;-71
2022/10/08 04:03:33;;;;;;;0.00;0.00;;;;;;;;;;1740549;28;20545;-71
2022/10/08 04:04:24;;;;;;;0.00;0.00;;;;;;;;;;1740114;28;20198;-71
2022/10/08 04:05:17;;;;;;;0.00;0.00;;;;;;;;;;1740780;28;20219;-71
2022/10/08 04:06:08;;;;;;;0.00;0.00;;;;;;;;;;1740156;28;20222;-70
2022/10/08 04:07:00;;;;;;;0.00;0.00;;;;;;;;;;1740366;28;20211;-70
2022/10/08 04:07:51;;;;;;;0.00;0.00;;;;;;;;;;1740464;28;20299;-70
2022/10/08 04:08:43;;;;;;;0.00;0.00;;;;;;;;;;1740521;28;20659;-70
2022/10/08 04:09:34;;;;;;;0.00;0.00;;;;;;;;;;1740202;28;20543;-70
2022/10/08 04:10:26;;;;;;;0.00;0.00;;;;;;;;;;1740710;28;20203;-70
2022/10/08 04:11:17;;;;;;;0.00;0.00;;;;;;;;;;1739973;28;20230;-70
2022/10/08 04:12:09;;;;;;;0.00;0.00;;;;;;;;;;1740290;28;20684;-70
2022/10/08 04:13:01;;;;;;;0.00;0.00;;;;;;;;;;1740099;28;20230;-70
2022/10/08 04:13:53;;;;;;;0.00;0.00;;;;;;;;;;1739998;28;20207;-70
2022/10/08 04:14:44;;;;;;;0.00;0.00;;;;;;;;;;1739906;28;20306;-70
2022/10/08 04:15:36;;;;;;;0.00;0.00;;;;;;;;;;1741062;28;20310;-70
2022/10/08 04:16:28;;;;;;;0.00;0.00;;;;;;;;;;1740106;28;20241;-70
2022/10/08 04:17:20;;;;;;;0.00;0.00;;;;;;;;;;1740407;28;20214;-70
2022/10/08 04:18:12;;;;;;;0.00;0.00;;;;;;;;;;1745088;28;20297;-70
2022/10/08 04:19:04;;;;;;;0.00;0.00;;;;;;;;;;1746956;28;20229;-70
2022/10/08 04:19:56;;;;;;;0.00;0.00;;;;;;;;;;1747135;28;20260;-70
2022/10/08 04:20:48;;;;;;;0.00;0.00;;;;;;;;;;1747572;28;20466;-70
2022/10/08 04:21:39;;;;;;;0.00;0.00;;;;;;;;;;1746762;28;20243;-71
2022/10/08 04:22:31;;;;;;;0.00;0.00;;;;;;;;;;1747016;28;20210;-71
2022/10/08 04:23:22;;;;;;;0.00;0.00;;;;;;;;;;1747022;28;20229;-71
2022/10/08 04:24:14;;;;;;;0.00;0.00;;;;;;;;;;1747157;28;20652;-71
2022/10/08 04:25:05;;;;;;;0.00;0.00;;;;;;;;;;1736688;28;20683;-71
2022/10/08 04:25:57;;;;;;;0.00;0.00;;;;;;;;;;1740020;28;20533;-70
2022/10/08 04:26:48;;;;;;;0.00;0.00;;;;;;;;;;1739943;28;20693;-70
2022/10/08 04:27:39;;;;;;;0.00;0.00;;;;;;;;;;1741107;28;20286;-70
2022/10/08 04:28:31;;;;;;;0.00;0.00;;;;;;;;;;1736852;28;20227;-70
2022/10/08 04:29:22;;;;;;;0.00;0.00;;;;;;;;;;1739911;28;20692;-70
2022/10/08 04:30:15;;;;;;;0.00;0.00;;;;;;;;;;1740687;28;20203;-70
2022/10/08 04:31:07;;;;;;;0.00;0.00;;;;;;;;;;1743223;28;20289;-70
2022/10/08 04:32:00;;;;;;;0.00;0.00;;;;;;;;;;1746836;28;20234;-70
2022/10/08 04:32:51;;;;;;;0.00;0.00;;;;;;;;;;1747044;28;20716;-70
2022/10/08 04:33:42;;;;;;;0.00;0.00;;;;;;;;;;1747122;28;20202;-70
2022/10/08 04:34:34;;;;;;;0.00;0.00;;;;;;;;;;1742605;28;20198;-70
2022/10/08 04:35:25;;;;;;;0.00;0.00;;;;;;;;;;1740512;28;20294;-70
2022/10/08 04:36:19;;;;;;;0.00;0.00;;;;;;;;;;1740240;28;20710;-70
2022/10/08 04:37:10;;;;;;;0.00;0.00;;;;;;;;;;1740096;28;20269;-71
2022/10/08 04:38:02;;;;;;;0.00;0.00;;;;;;;;;;1740082;28;20238;-70
2022/10/08 04:38:53;;;;;;;0.00;0.00;;;;;;;;;;1740305;28;20368;-70
2022/10/08 04:39:45;;;;;;;0.00;0.00;;;;;;;;;;1739804;28;20210;-70
2022/10/08 04:40:36;;;;;;;0.00;0.00;;;;;;;;;;1740804;28;20455;-70
2022/10/08 04:41:28;;;;;;;0.00;0.00;;;;;;;;;;1739706;28;20252;-71
2022/10/08 04:42:19;;;;;;;0.00;0.00;;;;;;;;;;1740018;28;20238;-71
2022/10/08 04:43:11;;;;;;;0.00;0.00;;;;;;;;;;1739937;28;20469;-71
2022/10/08 04:44:03;;;;;;;0.00;0.00;;;;;;;;;;1740047;28;20215;-71
2022/10/08 04:44:54;;;;;;;0.00;0.00;;;;;;;;;;1740182;28;20234;-71
2022/10/08 04:45:47;;;;;;;0.00;0.00;;;;;;;;;;1740472;28;20707;-71
2022/10/08 04:46:38;;;;;;;0.00;0.00;;;;;;;;;;1740288;28;20234;-70
2022/10/08 04:47:31;;;;;;;0.00;0.00;;;;;;;;;;1740032;28;20574;-70
2022/10/08 04:48:22;;;;;;;0.00;0.00;;;;;;;;;;1740325;28;20262;-70
2022/10/08 04:49:14;;;;;;;0.00;0.00;;;;;;;;;;1740233;28;20199;-70
2022/10/08 04:50:05;;;;;;;0.00;0.00;;;;;;;;;;1740377;28;20261;-70
2022/10/08 04:50:58;;;;;;;0.00;0.00;;;;;;;;;;1740122;28;20536;-71
2022/10/08 04:51:49;;;;;;;0.00;0.00;;;;;;;;;;1739864;28;20222;-71
2022/10/08 04:52:41;;;;;;;0.00;0.00;;;;;;;;;;1739618;28;20243;-71
2022/10/08 04:53:33;;;;;;;0.00;0.00;;;;;;;;;;1738016;28;20574;-71
2022/10/08 04:54:25;;;;;;;0.00;0.00;;;;;;;;;;1740425;28;20199;-71
2022/10/08 04:55:16;;;;;;;0.00;0.00;;;;;;;;;;1740752;28;20558;-71
2022/10/08 04:56:09;;;;;;;0.00;0.00;;;;;;;;;;1740504;28;20551;-70
2022/10/08 04:57:00;;;;;;;0.00;0.00;;;;;;;;;;1740407;28;20604;-70
2022/10/08 04:57:52;;;;;;;0.00;0.00;;;;;;;;;;1740248;28;20198;-70
2022/10/08 04:58:43;;;;;;;0.00;0.00;;;;;;;;;;1740127;28;20207;-70
2022/10/08 04:59:35;;;;;;;0.00;0.00;;;;;;;;;;1744243;28;20237;-70
2022/10/08 05:00:26;;;;;;;0.00;0.00;;;;;;;;;;1747358;28;20271;-70
2022/10/08 05:01:19;;;;;;;0.00;0.00;;;;;;;;;;1746795;28;20213;-70
2022/10/08 05:02:10;;;;;;;0.00;0.00;;;;;;;;;;1746443;28;20710;-70
2022/10/08 05:03:03;;;;;;;0.00;0.00;;;;;;;;;;1746644;28;20229;-70
2022/10/08 05:03:56;;;;;;;0.00;0.00;;;;;;;;;;1733224;28;20211;-70
2022/10/08 05:04:47;;;;;;;0.00;0.00;;;;;;;;;;1739030;28;20242;-70
2022/10/08 05:05:39;;;;;;;0.00;0.00;;;;;;;;;;1740335;28;20245;-70
2022/10/08 05:06:31;;;;;;;0.00;0.00;;;;;;;;;;1739794;28;20227;-70
2022/10/08 05:07:24;;;;;;;0.00;0.00;;;;;;;;;;1740315;28;20272;-70
2022/10/08 05:08:15;;;;;;;0.00;0.00;;;;;;;;;;1739676;28;20211;-70
2022/10/08 05:09:08;;;;;;;0.00;0.00;;;;;;;;;;1740113;28;20650;-70
2022/10/08 05:09:59;;;;;;;0.00;0.00;;;;;;;;;;1739968;28;20352;-70
2022/10/08 05:10:51;;;;;;;0.00;0.00;;;;;;;;;;1740393;28;20245;-70
2022/10/08 05:11:42;;;;;;;0.00;0.00;;;;;;;;;;1740082;28;20282;-70
2022/10/08 05:12:34;;;;;;;0.00;0.00;;;;;;;;;;1739429;28;20203;-70
2022/10/08 05:13:25;;;;;;;0.00;0.00;;;;;;;;;;1743078;28;20246;-70
2022/10/08 05:14:17;;;;;;;0.00;0.00;;;;;;;;;;1746530;28;20209;-70
2022/10/08 05:15:09;;;;;;;0.00;0.00;;;;;;;;;;1747313;28;20243;-70
2022/10/08 05:16:03;;;;;;;0.00;0.00;;;;;;;;;;1744359;28;20230;-70
2022/10/08 05:16:54;;;;;;;0.00;0.00;;;;;;;;;;1740164;28;20207;-70
2022/10/08 05:17:46;;;;;;;0.00;0.00;;;;;;;;;;1739964;28;20265;-70
2022/10/08 05:18:39;;;;;;;0.00;0.00;;;;;;;;;;1739660;28;20199;-70
2022/10/08 05:19:31;;;;;;;0.00;0.00;;;;;;;;;;1739697;28;20349;-70